createdAt,value
2019-05-25T00:00:37.158Z,7.97
2019-05-25T00:03:05.621Z,8.98
2019-05-25T00:05:33.934Z,9.30
2019-05-25T00:08:02.170Z,10.03
2019-05-25T00:10:30.617Z,10.65
2019-05-25T00:12:58.851Z,8.80
2019-05-25T00:15:27.158Z,9.40
2019-05-25T00:17:55.488Z,9.35
2019-05-25T00:20:23.745Z,9.60
2019-05-25T00:22:53.224Z,9.20
2019-05-25T00:25:21.514Z,8.55
2019-05-25T00:27:49.810Z,10.55
2019-05-25T00:30:18.274Z,8.43
2019-05-25T00:32:46.634Z,8.85
2019-05-25T00:35:15.009Z,9.60
2019-05-25T00:37:43.315Z,9.38
2019-05-25T00:40:11.662Z,9.08
2019-05-25T00:42:39.988Z,9.10
2019-05-25T00:45:08.366Z,8.83
2019-05-25T00:47:36.721Z,7.92
2019-05-25T00:50:06.556Z,8.28
2019-05-25T00:52:34.849Z,8.45
2019-05-25T00:55:04.445Z,8.08
2019-05-25T00:57:32.787Z,9.93
2019-05-25T01:00:01.099Z,7.70
2019-05-25T01:02:31.309Z,9.33
2019-05-25T01:04:59.604Z,9.38
2019-05-25T01:07:27.899Z,8.90
2019-05-25T01:09:56.243Z,8.30
2019-05-25T01:12:24.595Z,6.92
2019-05-25T01:14:53.118Z,7.28
2019-05-25T01:17:21.362Z,7.95
2019-05-25T01:19:49.772Z,7.20
2019-05-25T01:22:18.129Z,7.65
2019-05-25T01:24:46.577Z,9.28
2019-05-25T01:27:14.777Z,6.90
2019-05-25T01:29:43.148Z,8.18
2019-05-25T01:32:11.376Z,7.87
2019-05-25T01:34:39.701Z,8.43
2019-05-25T01:37:07.995Z,7.37
2019-05-25T01:39:36.472Z,8.95
2019-05-25T01:42:04.775Z,11.50
2019-05-25T01:44:33.063Z,7.70
2019-05-25T01:47:01.460Z,9.28
2019-05-25T01:49:29.770Z,8.95
2019-05-25T01:51:58.079Z,9.23
2019-05-25T01:54:26.423Z,9.10
2019-05-25T01:56:54.901Z,11.15
2019-05-25T01:59:23.272Z,9.15
2019-05-25T02:01:51.663Z,9.58
2019-05-25T02:04:20.023Z,9.90
2019-05-25T02:06:48.361Z,12.65
2019-05-25T02:09:16.689Z,12.47
2019-05-25T02:11:44.998Z,9.30
2019-05-25T02:14:13.321Z,10.00
2019-05-25T02:16:41.850Z,9.90
2019-05-25T02:19:10.196Z,8.05
2019-05-25T02:21:38.607Z,8.08
2019-05-25T02:24:06.971Z,9.03
2019-05-25T02:26:35.310Z,10.68
2019-05-25T02:29:03.730Z,10.95
2019-05-25T02:31:32.030Z,8.73
2019-05-25T02:34:00.293Z,8.90
2019-05-25T02:36:28.587Z,8.03
2019-05-25T02:38:57.963Z,11.78
2019-05-25T02:41:26.394Z,9.40
2019-05-25T02:43:54.747Z,12.00
2019-05-25T02:46:23.029Z,9.93
2019-05-25T02:48:51.427Z,10.68
2019-05-25T02:51:19.755Z,8.03
2019-05-25T02:53:48.088Z,8.68
2019-05-25T02:56:16.370Z,7.85
2019-05-25T02:58:44.670Z,8.68
2019-05-25T03:01:14.206Z,10.63
2019-05-25T03:03:42.454Z,7.60
2019-05-25T03:06:10.853Z,9.53
2019-05-25T03:08:39.825Z,8.95
2019-05-25T03:11:08.527Z,10.45
2019-05-25T03:13:36.816Z,10.78
2019-05-25T03:16:05.146Z,11.43
2019-05-25T03:18:33.460Z,8.80
2019-05-25T03:21:01.781Z,9.75
2019-05-25T03:23:30.084Z,8.88
2019-05-25T03:25:58.347Z,10.78
2019-05-25T03:28:26.749Z,8.93
2019-05-25T03:30:55.132Z,11.38
2019-05-25T03:33:23.406Z,9.00
2019-05-25T03:35:51.790Z,8.10
2019-05-25T03:38:19.988Z,9.43
2019-05-25T03:40:49.416Z,8.98
2019-05-25T03:43:17.663Z,8.00
2019-05-25T03:45:45.966Z,8.58
2019-05-25T03:48:14.279Z,5.97
2019-05-25T03:50:42.569Z,7.47
2019-05-25T03:53:10.972Z,9.40
2019-05-25T03:55:39.340Z,8.25
2019-05-25T03:58:07.706Z,8.10
2019-05-25T04:00:37.641Z,8.13
2019-05-25T04:03:06.285Z,8.85
2019-05-25T04:05:35.002Z,8.00
2019-05-25T04:08:03.484Z,9.23
2019-05-25T04:10:31.960Z,8.63
2019-05-25T04:13:00.433Z,10.28
2019-05-25T04:15:28.814Z,9.03
2019-05-25T04:17:58.344Z,8.48
2019-05-25T04:20:26.700Z,7.33
2019-05-25T04:22:55.293Z,7.30
2019-05-25T04:25:23.620Z,7.25
2019-05-25T04:27:51.946Z,9.05
2019-05-25T04:30:20.659Z,7.62
2019-05-25T04:32:49.121Z,13.32
2019-05-25T04:35:17.398Z,6.17
2019-05-25T04:37:45.822Z,6.75
2019-05-25T04:40:14.358Z,7.80
2019-05-25T04:42:42.776Z,7.28
2019-05-25T04:45:11.422Z,7.40
2019-05-25T04:47:39.696Z,7.08
2019-05-25T04:50:08.581Z,6.22
2019-05-25T04:52:40.744Z,7.67
2019-05-25T04:55:07.127Z,11.22
2019-05-25T04:57:35.549Z,10.10
2019-05-25T05:00:05.577Z,10.05
2019-05-25T05:02:34.047Z,6.87
2019-05-25T05:05:02.467Z,8.25
2019-05-25T05:07:30.768Z,6.75
2019-05-25T05:10:02.804Z,6.72
2019-05-25T05:12:29.125Z,6.87
2019-05-25T05:14:58.516Z,6.20
2019-05-25T05:17:26.782Z,6.12
2019-05-25T05:19:55.151Z,6.35
2019-05-25T05:22:23.426Z,5.87
2019-05-25T05:24:51.786Z,7.40
2019-05-25T05:27:20.184Z,6.90
2019-05-25T05:29:48.661Z,7.53
2019-05-25T05:32:27.170Z,6.17
2019-05-25T05:34:47.160Z,6.80
2019-05-25T05:37:15.538Z,7.50
2019-05-25T05:39:44.323Z,6.78
2019-05-25T05:42:13.267Z,7.45
2019-05-25T05:44:42.094Z,8.10
2019-05-25T05:47:11.902Z,8.10
2019-05-25T05:49:40.270Z,7.90
2019-05-25T05:52:08.685Z,8.55
2019-05-25T05:54:38.496Z,8.50
2019-05-25T05:57:12.272Z,8.40
2019-05-25T05:59:36.720Z,9.70
2019-05-25T06:02:05.043Z,11.15
2019-05-25T06:04:33.319Z,12.50
2019-05-25T06:07:01.834Z,13.90
2019-05-25T06:09:30.292Z,14.05
2019-05-25T06:11:58.803Z,13.58
2019-05-25T06:14:27.271Z,16.82
2019-05-25T06:16:55.853Z,13.70
2019-05-25T06:19:24.247Z,13.90
2019-05-25T06:21:52.588Z,13.13
2019-05-25T06:24:20.896Z,13.35
2019-05-25T06:26:49.308Z,12.82
2019-05-25T06:29:17.669Z,15.28
2019-05-25T06:31:46.201Z,12.90
2019-05-25T06:34:14.674Z,12.78
2019-05-25T06:36:43.167Z,11.75
2019-05-25T06:39:11.675Z,12.82
2019-05-25T06:41:40.009Z,11.15
2019-05-25T06:44:08.445Z,12.47
2019-05-25T06:46:39.648Z,12.95
2019-05-25T06:49:06.914Z,15.38
2019-05-25T06:51:35.361Z,12.55
2019-05-25T06:54:04.291Z,12.85
2019-05-25T06:56:32.765Z,13.28
2019-05-25T06:59:01.312Z,12.35
2019-05-25T07:01:29.737Z,12.65
2019-05-25T07:03:58.217Z,12.53
2019-05-25T07:06:26.706Z,10.95
2019-05-25T07:08:55.189Z,13.53
2019-05-25T07:11:23.672Z,12.43
2019-05-25T07:13:52.149Z,11.22
2019-05-25T07:16:20.538Z,10.30
2019-05-25T07:18:48.938Z,10.30
2019-05-25T07:21:17.400Z,10.55
2019-05-25T07:23:45.856Z,11.45
2019-05-25T07:26:14.259Z,11.55
2019-05-25T07:28:42.697Z,10.75
2019-05-25T07:31:11.187Z,12.13
2019-05-25T07:33:39.640Z,11.05
2019-05-25T07:36:08.192Z,10.70
2019-05-25T07:38:36.799Z,11.08
2019-05-25T07:41:05.211Z,12.00
2019-05-25T07:43:33.555Z,11.80
2019-05-25T07:46:01.881Z,12.50
2019-05-25T07:48:30.325Z,11.65
2019-05-25T07:50:58.960Z,13.80
2019-05-25T07:53:27.481Z,11.33
2019-05-25T07:55:55.833Z,13.10
2019-05-25T07:58:24.230Z,11.40
2019-05-25T08:00:52.723Z,10.82
2019-05-25T08:03:21.209Z,11.30
2019-05-25T08:05:49.585Z,10.28
2019-05-25T08:08:17.991Z,11.28
2019-05-25T08:10:46.321Z,10.48
2019-05-25T08:13:14.723Z,11.12
2019-05-25T08:15:43.094Z,11.43
2019-05-25T08:18:11.407Z,11.88
2019-05-25T08:20:39.696Z,11.73
2019-05-25T08:23:08.014Z,9.45
2019-05-25T08:25:36.316Z,10.18
2019-05-25T08:28:04.637Z,10.28
2019-05-25T08:30:32.997Z,11.97
2019-05-25T08:33:02.355Z,13.35
2019-05-25T08:35:30.665Z,11.33
2019-05-25T08:37:58.860Z,10.43
2019-05-25T08:40:27.184Z,15.08
2019-05-25T08:42:55.548Z,8.70
2019-05-25T08:45:25.912Z,9.68
2019-05-25T08:47:56.947Z,11.00
2019-05-25T08:50:37.106Z,11.38
2019-05-25T08:52:53.807Z,13.48
2019-05-25T08:55:22.172Z,11.00
2019-05-25T08:57:50.615Z,10.88
2019-05-25T09:00:19.060Z,11.15
2019-05-25T09:02:47.453Z,11.53
2019-05-25T09:05:15.992Z,11.22
2019-05-25T09:07:44.354Z,10.98
2019-05-25T09:10:12.847Z,10.98
2019-05-25T09:12:41.052Z,12.53
2019-05-25T09:15:09.402Z,11.48
2019-05-25T09:17:37.751Z,10.70
2019-05-25T09:20:07.068Z,12.00
2019-05-25T09:22:35.338Z,10.78
2019-05-25T09:25:05.377Z,11.83
2019-05-25T09:27:33.753Z,11.43
2019-05-25T09:30:02.122Z,11.75
2019-05-25T09:32:30.563Z,11.35
2019-05-25T09:34:59.908Z,11.08
2019-05-25T09:37:28.234Z,12.60
2019-05-25T09:39:56.602Z,10.58
2019-05-25T09:42:24.918Z,10.10
2019-05-25T09:44:53.231Z,11.25
2019-05-25T09:47:21.570Z,10.00
2019-05-25T09:49:49.835Z,11.10
2019-05-25T09:52:18.169Z,9.85
2019-05-25T09:54:46.457Z,10.13
2019-05-25T09:57:14.836Z,8.85
2019-05-25T09:59:43.103Z,10.78
2019-05-25T10:02:11.498Z,15.15
2019-05-25T10:04:39.788Z,9.68
2019-05-25T10:07:08.284Z,11.57
2019-05-25T10:09:40.041Z,13.50
2019-05-25T10:12:07.672Z,11.18
2019-05-25T10:14:36.049Z,9.68
2019-05-25T10:17:04.331Z,9.73
2019-05-25T10:19:32.660Z,11.97
2019-05-25T10:22:00.907Z,10.13
2019-05-25T10:24:29.210Z,12.13
2019-05-25T10:26:57.529Z,13.32
2019-05-25T10:29:36.680Z,10.35
2019-05-25T10:31:55.755Z,9.90
2019-05-25T10:34:24.047Z,9.48
2019-05-25T10:36:52.338Z,11.73
2019-05-25T10:39:20.661Z,12.78
2019-05-25T10:41:49.031Z,10.78
2019-05-25T10:44:17.356Z,13.32
2019-05-25T10:46:45.796Z,11.75
2019-05-25T10:49:14.181Z,12.45
2019-05-25T10:51:42.747Z,10.63
2019-05-25T10:54:11.168Z,13.55
2019-05-25T10:56:39.536Z,10.55
2019-05-25T10:59:08.001Z,15.10
2019-05-25T11:01:36.864Z,10.95
2019-05-25T11:04:05.348Z,11.45
2019-05-25T11:06:34.937Z,10.70
2019-05-25T11:09:04.581Z,12.55
2019-05-25T11:11:33.294Z,15.18
2019-05-25T11:14:01.838Z,11.83
2019-05-25T11:16:30.402Z,12.98
2019-05-25T11:18:58.740Z,12.37
2019-05-25T11:21:27.110Z,11.45
2019-05-25T11:23:55.504Z,13.45
2019-05-25T11:26:23.895Z,13.05
2019-05-25T11:28:52.258Z,12.40
2019-05-25T11:31:20.640Z,12.80
2019-05-25T11:33:49.165Z,12.35
2019-05-25T11:36:17.622Z,13.05
2019-05-25T11:38:46.163Z,12.90
2019-05-25T11:41:14.551Z,13.22
2019-05-25T11:43:42.921Z,15.05
2019-05-25T11:46:11.289Z,12.78
2019-05-25T11:48:39.675Z,12.75
2019-05-25T11:51:08.143Z,12.18
2019-05-25T11:53:36.619Z,13.32
2019-05-25T11:56:04.994Z,12.98
2019-05-25T11:58:46.620Z,13.50
2019-05-25T12:01:04.469Z,11.33
2019-05-25T12:03:32.888Z,11.68
2019-05-25T12:06:01.121Z,11.90
2019-05-25T12:08:29.604Z,11.73
2019-05-25T12:10:57.975Z,13.00
2019-05-25T12:13:26.356Z,13.43
2019-05-25T12:15:54.755Z,11.15
2019-05-25T12:18:23.206Z,11.20
2019-05-25T12:20:51.621Z,12.23
2019-05-25T12:23:19.917Z,15.60
2019-05-25T12:25:48.405Z,13.22
2019-05-25T12:28:16.892Z,11.57
2019-05-25T12:30:45.201Z,10.68
2019-05-25T12:33:13.609Z,10.72
2019-05-25T12:35:45.039Z,10.60
2019-05-25T12:38:11.824Z,10.28
2019-05-25T12:40:52.721Z,9.98
2019-05-25T12:43:10.197Z,11.45
2019-05-25T12:45:41.873Z,14.10
2019-05-25T12:48:08.594Z,12.10
2019-05-25T12:50:37.046Z,13.30
2019-05-25T12:53:05.472Z,10.10
2019-05-25T12:55:33.862Z,8.80
2019-05-25T12:58:02.253Z,11.15
2019-05-25T13:00:30.704Z,9.73
2019-05-25T13:02:59.038Z,9.40
2019-05-25T13:05:34.170Z,8.90
2019-05-25T13:07:57.408Z,9.18
2019-05-25T13:10:25.755Z,11.55
2019-05-25T13:12:54.187Z,11.00
2019-05-25T13:15:22.665Z,11.28
2019-05-25T13:17:51.114Z,11.28
2019-05-25T13:20:19.557Z,9.73
2019-05-25T13:22:47.911Z,8.60
2019-05-25T13:25:16.525Z,10.15
2019-05-25T13:27:44.952Z,9.75
2019-05-25T13:30:13.429Z,9.85
2019-05-25T13:32:41.893Z,9.38
2019-05-25T13:35:10.615Z,10.63
2019-05-25T13:37:39.117Z,12.63
2019-05-25T13:40:07.813Z,9.40
2019-05-25T13:42:36.308Z,9.60
2019-05-25T13:45:06.919Z,7.70
2019-05-25T13:47:35.182Z,10.90
2019-05-25T13:50:04.982Z,8.43
2019-05-25T13:52:33.401Z,7.35
2019-05-25T13:55:01.901Z,7.55
2019-05-25T13:57:30.350Z,12.28
2019-05-25T13:59:58.662Z,9.13
2019-05-25T14:02:27.130Z,10.00
2019-05-25T14:04:55.515Z,11.10
2019-05-25T14:07:23.802Z,8.45
2019-05-25T14:09:52.349Z,9.43
2019-05-25T14:12:21.105Z,10.65
2019-05-25T14:14:49.594Z,9.18
2019-05-25T14:17:17.935Z,10.45
2019-05-25T14:19:46.143Z,9.20
2019-05-25T14:22:14.609Z,9.98
2019-05-25T14:24:43.009Z,9.23
2019-05-25T14:27:11.369Z,9.75
2019-05-25T14:29:39.717Z,9.38
2019-05-25T14:32:08.224Z,10.38
2019-05-25T14:34:36.750Z,9.15
2019-05-25T14:37:05.149Z,10.95
2019-05-25T14:39:33.643Z,12.35
2019-05-25T14:42:01.987Z,9.25
2019-05-25T14:44:30.373Z,8.63
2019-05-25T14:46:58.737Z,9.55
2019-05-25T14:49:27.050Z,7.95
2019-05-25T14:51:56.504Z,12.68
2019-05-25T14:54:25.055Z,9.03
2019-05-25T14:56:53.361Z,8.70
2019-05-25T14:59:21.807Z,10.48
2019-05-25T15:02:01.935Z,8.75
2019-05-25T15:04:21.406Z,9.63
2019-05-25T15:06:49.746Z,10.63
2019-05-25T15:09:18.252Z,8.90
2019-05-25T15:11:46.539Z,9.18
2019-05-25T15:14:14.768Z,9.65
2019-05-25T15:16:43.021Z,10.43
2019-05-25T15:19:11.271Z,10.48
2019-05-25T15:21:39.800Z,8.93
2019-05-25T15:24:08.175Z,8.65
2019-05-25T15:26:37.502Z,7.40
2019-05-25T15:29:05.867Z,7.75
2019-05-25T15:31:34.714Z,8.33
2019-05-25T15:34:03.657Z,6.55
2019-05-25T15:36:32.045Z,8.05
2019-05-25T15:39:00.529Z,11.15
2019-05-25T15:41:29.009Z,6.45
2019-05-25T15:43:57.299Z,7.40
2019-05-25T15:46:26.071Z,9.20
2019-05-25T15:48:54.536Z,8.08
2019-05-25T15:51:22.905Z,8.15
2019-05-25T15:53:51.491Z,8.53
2019-05-25T15:56:19.979Z,7.25
2019-05-25T15:58:48.331Z,10.13
2019-05-25T16:01:16.704Z,8.28
2019-05-25T16:03:45.101Z,6.92
2019-05-25T16:06:13.465Z,6.33
2019-05-25T16:08:41.837Z,9.80
2019-05-25T16:11:10.702Z,7.35
2019-05-25T16:13:39.198Z,7.47
2019-05-25T16:16:07.670Z,7.85
2019-05-25T16:18:38.753Z,8.90
2019-05-25T16:21:07.253Z,9.53
2019-05-25T16:23:35.667Z,8.75
2019-05-25T16:26:04.056Z,14.68
2019-05-25T16:28:32.355Z,8.75
2019-05-25T16:31:00.656Z,8.73
2019-05-25T16:33:29.051Z,9.75
2019-05-25T16:35:58.141Z,8.95
2019-05-25T16:38:53.386Z,9.18
2019-05-25T16:41:21.874Z,7.80
2019-05-25T16:43:50.261Z,10.00
2019-05-25T16:46:18.570Z,10.85
2019-05-25T16:48:46.912Z,7.65
2019-05-25T16:51:15.243Z,6.75
2019-05-25T16:53:43.565Z,8.33
2019-05-25T16:56:11.849Z,7.70
2019-05-25T16:58:40.150Z,8.38
2019-05-25T17:01:08.498Z,7.35
2019-05-25T17:03:36.788Z,8.35
2019-05-25T17:06:05.176Z,7.17
2019-05-25T17:08:33.608Z,6.20
2019-05-25T17:11:01.887Z,7.28
2019-05-25T17:13:30.190Z,7.08
2019-05-25T17:15:58.500Z,9.20
2019-05-25T17:18:26.829Z,5.30
2019-05-25T17:20:55.160Z,6.28
2019-05-25T17:23:23.526Z,8.53
2019-05-25T17:25:51.961Z,7.58
2019-05-25T17:28:20.332Z,8.05
2019-05-25T17:30:49.775Z,7.47
2019-05-25T17:33:18.164Z,10.10
2019-05-25T17:35:46.579Z,8.25
2019-05-25T17:38:14.902Z,15.98
2019-05-25T17:40:43.352Z,8.65
2019-05-25T17:43:11.721Z,7.80
2019-05-25T17:45:40.032Z,8.25
2019-05-25T17:48:08.326Z,7.78
2019-05-25T17:50:36.695Z,8.25
2019-05-25T17:53:05.204Z,9.30
2019-05-25T17:55:33.513Z,11.18
2019-05-25T17:58:01.948Z,10.28
2019-05-25T18:00:40.781Z,9.25
2019-05-25T18:03:09.176Z,10.53
2019-05-25T18:05:37.742Z,10.78
2019-05-25T18:08:06.416Z,11.22
2019-05-25T18:10:51.139Z,12.33
2019-05-25T18:13:05.713Z,13.60
2019-05-25T18:15:35.013Z,14.58
2019-05-25T18:18:03.912Z,12.47
2019-05-25T18:20:33.339Z,13.60
2019-05-25T18:23:01.695Z,12.75
2019-05-25T18:25:30.110Z,13.53
2019-05-25T18:27:58.372Z,13.78
2019-05-25T18:30:26.841Z,15.03
2019-05-25T18:32:55.213Z,15.63
2019-05-25T18:35:23.528Z,16.05
2019-05-25T18:37:51.863Z,16.65
2019-05-25T18:40:20.252Z,16.97
2019-05-25T18:42:48.789Z,16.45
2019-05-25T18:45:17.329Z,16.50
2019-05-25T18:47:45.610Z,16.35
2019-05-25T18:50:15.412Z,17.48
2019-05-25T18:52:43.909Z,17.23
2019-05-25T18:55:12.459Z,20.57
2019-05-25T18:57:40.957Z,18.98
2019-05-25T19:00:10.849Z,18.02
2019-05-25T19:02:39.187Z,18.67
2019-05-25T19:05:07.750Z,18.80
2019-05-25T19:07:36.078Z,22.60
2019-05-25T19:10:05.811Z,21.57
2019-05-25T19:12:34.182Z,22.62
2019-05-25T19:15:02.582Z,24.43
2019-05-25T19:17:31.054Z,19.77
2019-05-25T19:19:59.520Z,19.80
2019-05-25T19:22:28.890Z,18.75
2019-05-25T19:24:57.525Z,16.95
2019-05-25T19:27:25.877Z,17.02
2019-05-25T19:29:54.378Z,18.50
2019-05-25T19:32:22.740Z,18.45
2019-05-25T19:34:59.434Z,19.05
2019-05-25T19:37:21.172Z,18.62
2019-05-25T19:39:49.447Z,19.15
2019-05-25T19:42:17.808Z,22.13
2019-05-25T19:44:46.103Z,19.42
2019-05-25T19:47:14.496Z,19.90
2019-05-25T19:49:42.788Z,20.90
2019-05-25T19:52:11.219Z,23.10
2019-05-25T19:54:39.709Z,20.00
2019-05-25T19:57:08.114Z,20.55
2019-05-25T19:59:36.402Z,20.17
2019-05-25T20:02:04.829Z,19.37
2019-05-25T20:04:33.200Z,19.52
2019-05-25T20:07:01.653Z,21.55
2019-05-25T20:09:30.064Z,17.62
2019-05-25T20:11:58.419Z,19.90
2019-05-25T20:14:26.744Z,19.37
2019-05-25T20:16:55.111Z,20.17
2019-05-25T20:19:23.487Z,17.20
2019-05-25T20:21:51.802Z,21.30
2019-05-25T20:24:20.207Z,19.52
2019-05-25T20:26:48.563Z,17.48
2019-05-25T20:29:16.815Z,17.65
2019-05-25T20:31:45.117Z,17.98
2019-05-25T20:34:13.530Z,16.10
2019-05-25T20:36:41.924Z,15.00
2019-05-25T20:39:10.317Z,19.42
2019-05-25T20:41:38.688Z,17.77
2019-05-25T20:44:07.025Z,16.65
2019-05-25T20:46:35.458Z,20.72
2019-05-25T20:49:03.952Z,18.30
2019-05-25T20:51:32.291Z,18.52
2019-05-25T20:54:00.657Z,19.37
2019-05-25T20:56:28.989Z,17.82
2019-05-25T20:58:57.302Z,20.32
2019-05-25T21:01:25.731Z,20.12
2019-05-25T21:03:54.089Z,17.95
2019-05-25T21:06:22.462Z,18.37
2019-05-25T21:08:50.960Z,16.02
2019-05-25T21:11:19.259Z,19.37
2019-05-25T21:13:47.720Z,20.82
2019-05-25T21:16:16.100Z,20.72
2019-05-25T21:18:44.348Z,20.52
2019-05-25T21:21:12.729Z,17.75
2019-05-25T21:23:41.142Z,18.80
2019-05-25T21:26:09.539Z,18.70
2019-05-25T21:28:37.849Z,24.63
2019-05-25T21:31:06.272Z,20.27
2019-05-25T21:33:36.593Z,18.90
2019-05-25T21:36:08.839Z,19.30
2019-05-25T21:38:34.654Z,22.50
2019-05-25T21:41:02.977Z,21.65
2019-05-25T21:43:31.382Z,25.68
2019-05-25T21:45:59.699Z,24.37
2019-05-25T21:48:28.077Z,21.60
2019-05-25T21:50:56.425Z,21.68
2019-05-25T21:53:24.757Z,19.55
2019-05-25T21:55:53.112Z,21.12
2019-05-25T21:58:21.343Z,21.12
2019-05-25T22:00:49.780Z,19.98
2019-05-25T22:03:18.215Z,18.55
2019-05-25T22:05:46.606Z,21.87
2019-05-25T22:08:15.019Z,21.15
2019-05-25T22:10:43.285Z,22.42
2019-05-25T22:13:27.451Z,23.90
2019-05-25T22:15:41.558Z,19.37
2019-05-25T22:18:09.971Z,20.40
2019-05-25T22:20:40.073Z,21.40
2019-05-25T22:23:08.246Z,21.45
2019-05-25T22:25:36.549Z,21.05
2019-05-25T22:28:05.001Z,22.17
2019-05-25T22:30:33.314Z,21.07
2019-05-25T22:33:01.641Z,19.02
2019-05-25T22:35:30.143Z,18.00
2019-05-25T22:37:58.620Z,16.52
2019-05-25T22:40:27.113Z,18.70
2019-05-25T22:42:55.396Z,18.37
2019-05-25T22:45:23.711Z,15.25
2019-05-25T22:47:52.250Z,17.23
2019-05-25T22:50:22.426Z,17.05
2019-05-25T22:52:50.838Z,17.48
2019-05-25T22:55:19.199Z,17.60
2019-05-25T22:57:47.572Z,20.50
2019-05-25T23:00:16.052Z,16.23
2019-05-25T23:02:44.564Z,17.07
2019-05-25T23:05:12.927Z,15.55
2019-05-25T23:07:41.328Z,17.05
2019-05-25T23:10:10.114Z,18.25
2019-05-25T23:12:38.507Z,16.10
2019-05-25T23:15:07.032Z,15.90
2019-05-25T23:17:35.417Z,14.83
2019-05-25T23:20:05.023Z,16.48
2019-05-25T23:22:33.426Z,17.90
2019-05-25T23:25:01.782Z,15.35
2019-05-25T23:27:30.098Z,15.28
2019-05-25T23:29:59.670Z,16.15
2019-05-25T23:32:28.072Z,15.05
2019-05-25T23:34:56.351Z,15.95
2019-05-25T23:37:24.633Z,16.95
2019-05-25T23:39:53.131Z,18.90
2019-05-25T23:42:21.385Z,14.90
2019-05-25T23:44:49.772Z,15.15
2019-05-25T23:47:18.151Z,16.05
2019-05-25T23:49:46.508Z,17.65
2019-05-25T23:52:14.796Z,16.17
2019-05-25T23:54:43.113Z,16.45
2019-05-25T23:57:11.397Z,17.95
2019-05-25T23:59:39.727Z,17.23
